Time;durP1;ratioP1;P1;durP2;ratioP2;P2;SDS_P1;SDS_P2;PMS_P1;PMS_P2;Temp;Humidity;BMP_temperature;BMP_pressure;BME280_temperature;BME280_humidity;BME280_pressure;Samples;Min_cycle;Max_cycle;Signal;HPM_P1;HPM_P2
2021/06/19 00:04:53;;;;;;;11.48;8.77;;;17.40;99.90;;;17.97;100.00;94937.00;2363663;56;34144;-52
2021/06/19 00:07:40;;;;;;;11.95;9.23;;;17.30;99.90;;;17.76;100.00;94957.00;2158770;57;26743;-52
2021/06/19 00:10:27;;;;;;;10.90;8.82;;;17.20;99.90;;;17.61;100.00;94954.00;2332626;57;26166;-52
2021/06/19 00:13:13;;;;;;;10.10;8.77;;;17.20;99.90;;;17.67;100.00;94964.00;2131070;58;26626;-53
2021/06/19 00:15:59;;;;;;;9.93;8.82;;;17.10;99.90;;;17.68;100.00;94969.00;2330992;57;26740;-52
2021/06/19 00:18:46;;;;;;;9.57;8.68;;;17.10;99.90;;;17.69;100.00;94968.00;2129999;56;26753;-52
2021/06/19 00:21:32;;;;;;;11.30;9.10;;;17.10;99.90;;;17.71;100.00;94959.00;2374308;56;27372;-52
2021/06/19 00:27:17;;;;;;;10.77;9.68;;;17.10;99.90;;;17.76;100.00;94952.00;2478915;53;34394;-54
2021/06/19 00:30:06;;;;;;;10.50;9.40;;;17.00;99.90;;;17.64;100.00;94969.00;2472141;53;26702;-52
2021/06/19 00:32:54;;;;;;;11.57;9.40;;;17.00;99.90;;;17.63;100.00;94970.00;2283838;53;27304;-52
2021/06/19 00:35:40;;;;;;;11.10;9.35;;;17.00;99.90;;;17.56;100.00;94965.00;2288366;53;26096;-52
2021/06/19 00:38:27;;;;;;;11.45;9.18;;;17.00;99.90;;;17.57;100.00;94958.00;2497477;53;26850;-52
2021/06/19 00:41:13;;;;;;;11.77;8.93;;;17.00;99.90;;;17.65;100.00;94955.00;2273667;53;27264;-53
2021/06/19 00:43:59;;;;;;;10.00;9.07;;;17.00;99.90;;;17.56;100.00;94964.00;2279391;53;26943;-52
2021/06/19 00:46:51;;;;;;;13.30;9.85;;;17.10;99.90;;;17.68;100.00;94970.00;2281071;53;26616;-51
2021/06/19 00:49:37;;;;;;;9.98;9.07;;;16.90;99.90;;;17.37;100.00;94974.00;2524441;53;26835;-52
2021/06/19 00:52:24;;;;;;;10.93;9.82;;;16.90;99.90;;;17.32;100.00;94958.00;2288907;53;26842;-51
2021/06/19 00:55:12;;;;;;;11.73;9.73;;;17.00;99.90;;;17.48;100.00;94970.00;2534498;53;26771;-52
2021/06/19 00:58:01;;;;;;;11.20;10.07;;;17.00;99.90;;;17.52;100.00;94987.00;2294344;53;27293;-52
2021/06/19 01:00:47;;;;;;;12.00;10.82;;;17.00;99.90;;;17.59;100.00;95004.00;2536322;53;26792;-52
2021/06/19 01:06:31;;;;;;;13.10;11.12;;;17.10;99.90;;;17.89;100.00;95016.00;2350326;56;34260;-52
2021/06/19 01:09:17;;;;;;;12.37;11.07;;;17.20;99.90;;;17.72;100.00;95030.00;2322139;56;26839;-52
2021/06/19 01:12:05;;;;;;;11.82;9.57;;;17.20;99.90;;;17.71;100.00;95036.00;2150800;56;26624;-52
2021/06/19 01:17:48;;;;;;;11.90;9.77;;;17.20;99.90;;;17.71;100.00;95003.00;2373888;55;34046;-52
2021/06/19 01:20:36;;;;;;;10.48;9.48;;;17.10;99.90;;;17.55;100.00;95013.00;2375295;55;26668;-52
2021/06/19 01:26:22;;;;;;;10.40;9.40;;;17.10;99.90;;;17.62;100.00;94993.00;2446576;54;33782;-51
2021/06/19 01:29:08;;;;;;;11.73;9.77;;;17.00;99.90;;;17.44;100.00;95006.00;2435811;54;26795;-51
2021/06/19 01:31:55;;;;;;;9.95;8.95;;;17.00;99.90;;;17.54;100.00;95010.00;2210768;55;26146;-52
2021/06/19 01:34:41;;;;;;;11.12;9.98;;;16.90;99.90;;;17.44;100.00;95016.00;2449670;54;26679;-52
2021/06/19 01:37:27;;;;;;;9.60;8.65;;;16.90;99.90;;;17.33;100.00;95016.00;2242103;54;26848;-52
2021/06/19 01:40:16;;;;;;;10.05;9.02;;;16.90;99.90;;;17.58;100.00;95015.00;2242281;54;26709;-52
2021/06/19 01:46:00;;;;;;;10.48;9.48;;;16.80;99.90;;;17.38;100.00;95002.00;2374729;55;34471;-52
2021/06/19 01:48:46;;;;;;;13.32;9.30;;;16.80;99.90;;;17.35;100.00;95022.00;2163450;57;26823;-52
2021/06/19 01:51:32;;;;;;;9.73;8.82;;;16.70;99.90;;;17.28;100.00;95016.00;2179550;58;26670;-52
2021/06/19 01:54:19;;;;;;;10.35;9.25;;;16.80;99.90;;;17.36;100.00;95018.00;2378346;56;26886;-54
2021/06/19 01:57:07;;;;;;;9.88;8.98;;;16.80;99.90;;;17.51;100.00;95022.00;2157398;57;27119;-53
2021/06/19 02:02:58;;;;;;;8.93;8.02;;;16.70;99.90;;;17.34;100.00;95020.00;2361172;55;33138;-51
2021/06/19 02:05:45;;;;;;;9.65;7.97;;;16.70;99.90;;;17.29;100.00;95035.00;2173932;56;26934;-52
2021/06/19 02:08:31;;;;;;;10.70;9.70;;;16.80;99.90;;;17.32;100.00;95038.00;2385657;56;26634;-52
2021/06/19 02:11:17;;;;;;;10.35;9.27;;;16.80;99.90;;;17.37;100.00;95038.00;2174546;56;26758;-52
2021/06/19 02:14:05;;;;;;;12.95;9.95;;;16.80;99.90;;;17.23;100.00;95033.00;2368329;56;26748;-53
2021/06/19 02:16:51;;;;;;;11.02;9.93;;;16.70;99.90;;;17.20;100.00;95040.00;2174283;56;27190;-53
2021/06/19 02:19:38;;;;;;;9.80;8.80;;;16.70;99.90;;;17.18;100.00;95039.00;2173220;57;27087;-52
2021/06/19 02:25:23;;;;;;;14.70;9.93;;;16.70;99.90;;;17.31;100.00;95033.00;2400985;55;34690;-52
2021/06/19 02:31:08;;;;;;;10.07;9.07;;;16.70;99.90;;;17.45;100.00;95045.00;2350040;56;33816;-52
2021/06/19 02:33:54;;;;;;;12.10;9.63;;;16.80;99.90;;;17.33;100.00;95053.00;2144348;57;26748;-52
2021/06/19 02:36:41;;;;;;;12.07;9.73;;;16.80;99.90;;;17.27;100.00;95051.00;2369907;56;27074;-52
2021/06/19 02:39:27;;;;;;;10.40;9.40;;;16.70;99.90;;;17.22;100.00;95066.00;2158516;56;26741;-52
2021/06/19 02:42:14;;;;;;;12.55;9.75;;;16.70;99.90;;;17.28;100.00;95055.00;2370713;56;26706;-52
2021/06/19 02:45:00;;;;;;;10.23;9.02;;;16.70;99.90;;;17.24;100.00;95049.00;2159565;56;26588;-52
2021/06/19 02:47:48;;;;;;;10.75;9.65;;;16.70;99.90;;;17.15;100.00;95055.00;2373249;56;26606;-52
2021/06/19 02:53:37;;;;;;;11.85;10.20;;;16.60;99.90;;;17.22;100.00;95057.00;2469163;54;33664;-54
2021/06/19 02:56:23;;;;;;;10.57;9.10;;;16.70;99.90;;;17.17;100.00;95072.00;2218141;55;26639;-54
2021/06/19 02:59:10;;;;;;;13.43;10.27;;;16.60;99.90;;;17.07;100.00;95060.00;2211344;55;26764;-53
2021/06/19 03:01:56;;;;;;;10.10;9.18;;;16.60;99.90;;;17.10;100.00;95058.00;2210672;55;26121;-52
2021/06/19 03:04:42;;;;;;;11.95;9.05;;;16.60;99.90;;;17.19;100.00;95059.00;2210235;55;27032;-53
2021/06/19 03:07:29;;;;;;;10.15;9.15;;;16.60;99.90;;;17.10;100.00;95064.00;2483405;53;26765;-54
2021/06/19 03:10:19;;;;;;;12.13;10.85;;;16.50;99.90;;;16.97;100.00;95064.00;2490515;54;26746;-53
2021/06/19 03:13:05;;;;;;;10.98;9.88;;;16.40;99.90;;;16.95;100.00;95054.00;2237712;55;26889;-53
2021/06/19 03:18:49;;;;;;;11.85;10.65;;;16.40;99.90;;;16.94;100.00;95040.00;2413405;55;34865;-53
2021/06/19 03:24:38;;;;;;;11.32;10.13;;;16.40;99.90;;;17.03;100.00;95038.00;2416388;55;34318;-54
2021/06/19 03:27:26;;;;;;;11.95;10.73;;;16.40;99.90;;;16.93;100.00;95062.00;2176046;56;26806;-53
2021/06/19 03:30:16;;;;;;;11.50;10.40;;;16.40;99.90;;;16.87;100.00;95074.00;2393906;56;26736;-54
2021/06/19 03:33:03;;;;;;;14.63;11.27;;;16.30;99.90;;;16.77;100.00;95076.00;2162270;56;26748;-53
2021/06/19 03:35:50;;;;;;;12.10;10.75;;;16.30;99.90;;;16.89;100.00;95072.00;2372634;56;26790;-53
2021/06/19 03:38:36;;;;;;;11.48;10.32;;;16.30;99.90;;;16.86;100.00;95078.00;2162059;56;26645;-54
2021/06/19 03:41:23;;;;;;;11.50;10.40;;;16.30;99.90;;;16.82;100.00;95082.00;2373514;56;26244;-53
2021/06/19 03:47:07;;;;;;;12.18;10.90;;;16.30;99.90;;;16.90;100.00;95057.00;2438241;53;33869;-53
2021/06/19 03:49:53;;;;;;;10.98;9.90;;;16.30;99.90;;;16.88;100.00;95083.00;2231082;55;26738;-53
2021/06/19 03:52:40;;;;;;;12.25;10.95;;;16.20;99.90;;;16.76;100.00;95088.00;2447291;55;26220;-53
2021/06/19 03:58:23;;;;;;;11.70;10.50;;;16.30;99.90;;;16.95;100.00;95089.00;2374808;55;33898;-52
2021/06/19 04:01:11;;;;;;;12.60;10.43;;;16.40;99.90;;;17.09;100.00;95115.00;2146638;57;26912;-53
2021/06/19 04:06:55;;;;;;;11.50;10.30;;;16.60;99.90;;;17.23;100.00;95095.00;2412199;53;33873;-54
2021/06/19 04:09:42;;;;;;;11.70;10.50;;;16.60;99.90;;;17.13;100.00;95114.00;2155917;57;27081;-52
2021/06/19 04:12:28;;;;;;;12.15;10.85;;;16.80;99.90;;;17.30;100.00;95112.00;2173310;55;26284;-53
2021/06/19 04:15:16;;;;;;;11.98;10.80;;;16.90;99.90;;;17.46;100.00;95107.00;2428549;55;26185;-53
2021/06/19 04:18:02;;;;;;;11.12;10.13;;;17.00;99.90;;;17.53;100.00;95111.00;2191471;55;26712;-53
2021/06/19 04:20:48;;;;;;;12.15;10.30;;;17.00;99.90;;;17.58;100.00;95114.00;2394621;56;26899;-54
2021/06/19 04:23:36;;;;;;;10.20;9.25;;;17.00;99.90;;;17.56;100.00;95116.00;2175917;56;26723;-53
2021/06/19 04:26:22;;;;;;;10.30;9.40;;;17.10;99.90;;;17.68;100.00;95120.00;2393360;55;26750;-53
2021/06/19 04:29:09;;;;;;;10.48;9.38;;;17.20;99.90;;;17.79;100.00;95121.00;2175953;55;26690;-53
2021/06/19 04:31:56;;;;;;;10.23;8.95;;;17.30;99.90;;;17.90;100.00;95120.00;2395224;56;26768;-54
2021/06/19 04:37:39;;;;;;;10.00;9.00;;;17.60;99.90;;;18.41;100.00;95108.00;2451906;54;33551;-53
2021/06/19 04:40:32;;;;;;;9.93;8.90;;;17.80;99.90;;;18.50;100.00;95118.00;2221962;55;26727;-53
2021/06/19 04:43:24;;;;;;;9.15;8.25;;;18.00;99.90;;;18.67;100.00;95133.00;2457941;54;26622;-53
2021/06/19 04:46:11;;;;;;;9.93;8.93;;;18.10;99.90;;;18.90;100.00;95128.00;2494231;54;26778;-54
2021/06/19 04:48:57;;;;;;;9.68;8.68;;;18.40;99.90;;;19.19;100.00;95119.00;2262726;55;26107;-54
2021/06/19 04:51:44;;;;;;;11.20;9.32;;;18.60;99.90;;;19.36;100.00;95122.00;2263604;54;26689;-53
2021/06/19 04:54:36;;;;;;;9.73;8.73;;;18.90;99.90;;;19.70;100.00;95123.00;2494966;54;26702;-53
2021/06/19 04:57:23;;;;;;;9.38;8.38;;;19.20;99.90;;;19.92;100.00;95119.00;2494117;54;27006;-54
2021/06/19 05:03:12;;;;;;;9.73;8.40;;;19.70;99.90;;;20.71;100.00;95117.00;2480039;53;33587;-53
2021/06/19 05:06:01;;;;;;;9.15;8.27;;;20.10;99.90;;;20.95;100.00;95114.00;2211509;54;27551;-53
2021/06/19 05:11:44;;;;;;;9.75;8.88;;;20.60;99.90;;;21.50;100.00;95111.00;2332993;57;34534;-54
2021/06/19 05:14:30;;;;;;;11.30;8.15;;;20.80;99.90;;;21.58;100.00;95121.00;2107601;58;26862;-53
2021/06/19 05:17:16;;;;;;;9.32;8.43;;;20.90;99.90;;;21.68;100.00;95116.00;2113344;58;26683;-53
2021/06/19 05:20:04;;;;;;;9.43;8.57;;;21.00;99.90;;;21.77;100.00;95117.00;2317437;58;26956;-54
2021/06/19 05:22:51;;;;;;;9.57;8.57;;;21.30;99.90;;;22.02;100.00;95125.00;2114048;58;26738;-54
2021/06/19 05:25:38;;;;;;;10.30;8.65;;;21.50;99.90;;;22.37;100.00;95122.00;2317833;57;26672;-53
2021/06/19 05:28:24;;;;;;;10.13;8.95;;;21.80;99.90;;;22.70;100.00;95125.00;2115646;57;26694;-53
2021/06/19 05:31:10;;;;;;;9.32;8.43;;;22.00;99.90;;;22.96;100.00;95137.00;2320594;57;26710;-54
2021/06/19 05:33:57;;;;;;;10.15;8.80;;;22.10;99.90;;;23.03;100.00;95143.00;2115862;58;26988;-53
2021/06/19 05:36:43;;;;;;;9.30;8.40;;;22.10;99.90;;;23.00;100.00;95144.00;2314435;58;26666;-53
2021/06/19 05:39:30;;;;;;;14.60;9.23;;;22.10;99.90;;;23.01;100.00;95161.00;2100566;57;26197;-53
2021/06/19 05:42:16;;;;;;;12.40;9.75;;;22.10;99.90;;;22.85;100.00;95157.00;2303270;57;26944;-53
2021/06/19 05:45:04;;;;;;;11.43;9.20;;;22.00;99.90;;;22.59;100.00;95167.00;2067555;59;26806;-54
2021/06/19 05:47:51;;;;;;;10.70;9.43;;;22.00;99.90;;;22.72;100.00;95168.00;2068399;58;26952;-54
2021/06/19 05:50:37;;;;;;;10.10;9.10;;;22.20;99.90;;;22.81;100.00;95170.00;2288835;58;26929;-52
2021/06/19 05:53:25;;;;;;;12.35;8.95;;;22.20;99.90;;;22.87;100.00;95177.00;2091634;58;26702;-53
2021/06/19 05:56:11;;;;;;;11.75;9.02;;;22.20;99.90;;;22.91;100.00;95177.00;2286490;58;26794;-53
2021/06/19 05:58:58;;;;;;;9.70;8.52;;;22.30;99.90;;;23.12;100.00;95172.00;2099097;58;26793;-53
2021/06/19 06:01:44;;;;;;;11.43;8.10;;;22.80;99.90;;;23.91;100.00;95168.00;2319129;58;27262;-53
2021/06/19 06:07:27;;;;;;;11.85;7.75;;;24.70;99.90;;;26.66;100.00;95170.00;2398201;55;34470;-54
2021/06/19 06:10:14;;;;;;;10.52;8.13;;;25.90;99.90;;;27.71;100.00;95154.00;2164620;56;26769;-53
2021/06/19 06:13:01;;;;;;;9.38;7.28;;;26.30;99.90;;;28.31;100.00;95154.00;2396667;55;26769;-53
2021/06/19 06:15:48;;;;;;;10.15;7.70;;;27.10;99.90;;;29.49;100.00;95145.00;2208704;56;26771;-54
2021/06/19 06:21:31;;;;;;;8.82;6.68;;;27.90;99.90;;;29.94;100.00;95160.00;2366098;56;33904;-53
2021/06/19 06:24:18;;;;;;;8.82;6.28;;;27.90;99.90;;;28.87;100.00;95167.00;2157088;57;25212;-53
2021/06/19 06:27:07;;;;;;;6.75;6.05;;;27.70;99.90;;;28.94;100.00;95164.00;2152907;57;26024;-53
2021/06/19 06:29:53;;;;;;;9.63;6.97;;;27.10;99.90;;;28.10;100.00;95163.00;2162436;57;27232;-52
2021/06/19 06:32:40;;;;;;;10.65;6.37;;;26.70;99.90;;;27.41;100.00;95163.00;2145726;58;26648;-55
2021/06/19 06:35:27;;;;;;;11.45;6.57;;;26.30;99.90;;;27.01;100.00;95171.00;2371185;57;26154;-52
2021/06/19 06:38:13;;;;;;;9.80;6.25;;;26.20;99.90;;;27.05;100.00;95173.00;2158884;57;27240;-53
2021/06/19 06:41:00;;;;;;;9.52;6.75;;;26.10;99.90;;;26.98;100.00;95167.00;2370650;57;26674;-53
2021/06/19 06:43:46;;;;;;;11.18;6.32;;;26.60;99.90;;;28.11;100.00;95175.00;2157409;58;26781;-53
2021/06/19 06:46:32;;;;;;;10.50;6.40;;;26.80;99.90;;;27.65;100.00;95172.00;2370596;57;26983;-52
2021/06/19 06:49:19;;;;;;;13.05;6.40;;;26.40;99.90;;;26.88;100.00;95169.00;2158004;58;27019;-54
2021/06/19 06:52:07;;;;;;;14.70;6.55;;;25.80;99.90;;;26.41;100.00;95175.00;2369924;57;26503;-52
2021/06/19 06:54:53;;;;;;;9.55;6.93;;;25.70;99.90;;;26.39;100.00;95178.00;2158819;57;26661;-53
2021/06/19 06:57:39;;;;;;;9.18;6.40;;;25.60;99.90;;;26.06;100.00;95182.00;2154576;57;26707;-53
2021/06/19 07:00:26;;;;;;;8.13;6.62;;;25.10;99.90;;;25.41;100.00;95177.00;2358948;57;26670;-52
2021/06/19 07:03:12;;;;;;;8.07;6.25;;;24.90;99.90;;;25.25;100.00;95175.00;2157558;57;27088;-53
2021/06/19 07:08:55;;;;;;;13.00;7.37;;;24.60;99.90;;;25.37;100.00;95189.00;2402445;55;33648;-53
2021/06/19 07:11:42;;;;;;;11.43;7.00;;;24.60;99.90;;;25.12;100.00;95184.00;2202841;56;26696;-53
2021/06/19 07:17:26;;;;;;;10.05;7.62;;;24.60;99.90;;;25.51;100.00;95176.00;2390776;55;34692;-53
2021/06/19 07:20:16;;;;;;;10.02;7.00;;;24.70;99.90;;;25.56;100.00;95179.00;2352874;55;26793;-54
2021/06/19 07:23:02;;;;;;;11.43;7.12;;;24.80;99.90;;;25.60;100.00;95176.00;2144383;56;26672;-54
2021/06/19 07:25:48;;;;;;;9.15;6.85;;;24.70;99.90;;;25.43;100.00;95174.00;2352663;55;27394;-53
2021/06/19 07:28:35;;;;;;;13.30;7.40;;;24.70;99.90;;;25.51;100.00;95171.00;2142306;56;27077;-53
2021/06/19 07:31:21;;;;;;;11.45;7.35;;;24.60;99.90;;;25.11;100.00;95165.00;2352470;55;27291;-53
2021/06/19 07:34:07;;;;;;;9.30;6.65;;;24.80;99.90;;;25.55;100.00;95173.00;2143755;56;26750;-53
2021/06/19 07:36:54;;;;;;;10.77;7.18;;;25.20;99.90;;;26.23;100.00;95173.00;2371103;55;27464;-54
2021/06/19 07:39:40;;;;;;;9.90;7.43;;;25.50;99.90;;;26.48;100.00;95166.00;2183671;56;26802;-54
2021/06/19 07:42:27;;;;;;;9.25;7.12;;;26.00;99.90;;;27.12;100.00;95170.00;2183032;56;26093;-53
2021/06/19 07:45:15;;;;;;;9.35;7.30;;;27.00;99.90;;;28.57;100.00;95162.00;2399820;55;27073;-54
2021/06/19 07:48:02;;;;;;;14.00;7.20;;;28.30;99.90;;;30.42;100.00;95158.00;2165354;56;26859;-54
2021/06/19 07:50:48;;;;;;;8.63;6.70;;;29.50;99.90;;;31.63;100.00;95164.00;2381034;55;25606;-53
2021/06/19 07:53:34;;;;;;;15.13;6.93;;;30.60;99.90;;;33.03;100.00;95163.00;2164835;56;27252;-51
2021/06/19 08:02:14;;;;;;;8.02;6.68;;;32.60;99.90;;;35.05;79.26;95150.00;2398629;55;33169;-52
2021/06/19 08:05:01;;;;;;;7.45;6.57;;;33.00;99.90;;;34.95;81.98;95150.00;2171263;56;26155;-52
2021/06/19 08:07:47;;;;;;;15.55;7.45;;;33.90;99.90;;;36.63;76.52;95142.00;2178745;56;25908;-53
2021/06/19 08:10:34;;;;;;;13.00;6.60;;;34.40;99.90;;;36.98;66.58;95137.00;2370956;56;25957;-52
2021/06/19 08:13:20;;;;;;;12.63;5.78;;;34.10;99.90;;;36.54;59.99;95140.00;2146769;57;25911;-51
2021/06/19 08:16:10;;;;;;;12.25;6.60;;;33.30;99.90;;;34.99;61.97;95140.00;2383938;55;26021;-52
2021/06/19 08:18:57;;;;;;;10.35;5.37;;;33.30;99.90;;;35.72;60.14;95137.00;2187469;56;25741;-51
2021/06/19 08:21:44;;;;;;;10.13;5.72;;;33.60;99.90;;;35.86;61.07;95131.00;2407165;55;25630;-52
2021/06/19 08:27:28;;;;;;;12.32;5.85;;;33.00;99.90;;;35.12;60.53;95125.00;2491325;53;32564;-53
2021/06/19 08:30:16;;;;;;;10.45;5.87;;;33.00;99.90;;;34.44;61.07;95110.00;2468187;53;25878;-54
2021/06/19 08:33:02;;;;;;;11.45;6.07;;;33.20;99.90;;;34.73;59.35;95108.00;2251454;53;25530;-51
2021/06/19 08:35:49;;;;;;;10.35;5.70;;;33.40;99.90;;;35.43;54.17;95104.00;2261379;53;25708;-51
2021/06/19 08:38:35;;;;;;;9.63;5.75;;;33.80;99.90;;;35.82;58.44;95112.00;2485743;53;26369;-51
2021/06/19 08:41:22;;;;;;;10.60;5.82;;;34.10;99.90;;;36.28;55.87;95102.00;2247491;53;25777;-52
2021/06/19 08:44:10;;;;;;;14.18;6.10;;;33.80;99.90;;;35.19;54.61;95104.00;2481102;53;25758;-51
2021/06/19 08:46:58;;;;;;;10.43;5.87;;;33.00;99.90;;;34.92;69.34;95102.00;2248325;53;27346;-51
2021/06/19 08:49:46;;;;;;;10.40;5.85;;;33.00;99.90;;;34.96;60.12;95103.00;2479152;53;25905;-51
2021/06/19 08:52:35;;;;;;;10.32;5.80;;;33.80;99.90;;;35.87;53.85;95095.00;2250485;54;26066;-51
2021/06/19 08:55:21;;;;;;;9.15;5.95;;;34.70;99.90;;;36.68;56.26;95086.00;2483531;54;25775;-51
2021/06/19 08:58:08;;;;;;;12.13;5.87;;;34.70;99.90;;;36.58;64.04;95084.00;2261310;54;25782;-50
2021/06/19 09:00:54;;;;;;;10.65;6.15;;;35.50;99.90;;;37.07;56.52;95090.00;2496856;54;25781;-52
2021/06/19 09:06:41;;;;;;;9.15;5.93;;;35.60;99.90;;;37.52;49.81;95096.00;2409621;55;33112;-52
2021/06/19 09:09:27;;;;;;;8.85;6.00;;;36.00;99.90;;;38.05;45.41;95090.00;2174263;57;25687;-51
2021/06/19 09:12:14;;;;;;;8.65;5.78;;;34.80;99.90;;;36.69;54.48;95094.00;2408568;56;25764;-51
2021/06/19 09:15:17;;;;;;;10.07;5.82;;;35.50;99.90;;;38.05;52.80;95095.00;2189249;56;25813;-51
2021/06/19 09:21:03;;;;;;;10.20;6.47;;;35.30;99.90;;;37.91;49.03;95085.00;2355754;56;33066;-53
2021/06/19 09:23:50;;;;;;;9.82;6.22;;;35.60;99.90;;;36.75;53.33;95087.00;2153467;57;25579;-52
2021/06/19 09:26:37;;;;;;;7.55;5.93;;;35.80;99.90;;;38.01;49.39;95083.00;2351233;56;26025;-51
2021/06/19 09:29:29;;;;;;;9.05;5.70;;;35.80;99.90;;;37.92;50.12;95088.00;2154620;56;26268;-52
2021/06/19 09:32:25;;;;;;;8.65;6.25;;;35.60;99.90;;;37.94;51.47;95083.00;2162010;57;25782;-51
2021/06/19 09:35:17;;;;;;;12.70;6.75;;;35.60;99.90;;;37.23;46.97;95078.00;2375901;56;25730;-51
2021/06/19 09:38:07;;;;;;;10.45;6.53;;;35.00;99.90;;;36.79;50.20;95077.00;2159796;57;26144;-51
2021/06/19 09:40:53;;;;;;;8.32;5.57;;;34.60;99.90;;;36.76;54.80;95069.00;2377644;56;25782;-51
2021/06/19 09:43:45;;;;;;;9.63;6.43;;;35.70;99.90;;;38.60;49.96;95067.00;2161749;57;25697;-51
2021/06/19 09:46:32;;;;;;;11.20;6.40;;;35.80;99.90;;;38.25;48.05;95063.00;2374804;56;26267;-52
2021/06/19 09:49:19;;;;;;;10.90;6.10;;;34.70;99.90;;;36.87;53.12;95065.00;2161146;56;26323;-50
2021/06/19 09:52:07;;;;;;;10.20;6.12;;;35.00;99.90;;;37.43;52.76;95063.00;2369396;56;25827;-51
2021/06/19 09:55:00;;;;;;;10.35;6.55;;;34.70;99.90;;;36.12;49.21;95071.00;2148151;56;26533;-50
2021/06/19 09:57:48;;;;;;;12.52;6.43;;;34.30;99.90;;;36.06;49.10;95058.00;2147721;56;25742;-51
2021/06/19 10:00:39;;;;;;;16.67;6.30;;;34.70;99.90;;;36.90;51.76;95058.00;2149176;56;25591;-51
2021/06/19 10:03:26;;;;;;;14.30;6.28;;;34.80;99.90;;;36.80;53.02;95062.00;2150932;56;26208;-51
2021/06/19 10:06:12;;;;;;;6.60;5.62;;;34.20;99.90;;;35.80;54.90;95054.00;2148344;56;25238;-51
2021/06/19 10:08:59;;;;;;;7.20;5.97;;;34.50;99.90;;;36.96;52.21;95049.00;2356221;56;25701;-52
2021/06/19 10:11:48;;;;;;;7.78;6.07;;;34.70;99.90;;;36.97;48.00;95043.00;2131613;57;25914;-51
2021/06/19 10:14:35;;;;;;;11.90;6.12;;;34.30;99.90;;;35.08;56.50;95040.00;2340505;56;25747;-51
2021/06/19 10:17:28;;;;;;;10.02;6.40;;;33.90;99.90;;;35.44;57.31;95045.00;2132397;56;25642;-50
2021/06/19 10:20:17;;;;;;;10.23;6.40;;;34.30;99.90;;;36.08;48.39;95043.00;2153100;56;26171;-51
2021/06/19 10:23:04;;;;;;;10.57;5.80;;;34.20;99.90;;;35.47;56.88;95047.00;2157647;56;26467;-50
2021/06/19 10:25:51;;;;;;;8.68;6.00;;;34.00;99.90;;;35.27;54.88;95037.00;2371291;56;26117;-49
2021/06/19 10:31:41;;;;;;;13.73;6.12;;;33.90;99.90;;;34.24;60.00;95035.00;2501107;53;33624;-52
2021/06/19 10:34:30;;;;;;;9.88;6.35;;;32.70;99.90;;;33.35;55.27;95024.00;2226743;55;26460;-53
2021/06/19 10:37:30;;;;;;;8.57;5.80;;;32.60;99.90;;;33.99;64.97;95022.00;2451479;54;25614;-53
2021/06/19 10:40:21;;;;;;;8.32;5.72;;;33.70;99.90;;;35.74;54.85;95019.00;2217908;55;25635;-51
2021/06/19 10:46:34;;;;;;;9.45;5.80;;;34.00;99.90;;;35.78;49.53;95010.00;2411100;55;33247;-51
2021/06/19 10:49:42;;;;;;;13.30;5.90;;;33.90;99.90;;;34.84;59.71;95005.00;2200113;56;26434;-50
2021/06/19 10:55:34;;;;;;;7.85;5.90;;;33.80;99.90;;;35.11;49.09;94993.00;2401969;55;33058;-50
2021/06/19 10:58:24;;;;;;;6.90;5.80;;;33.80;99.90;;;34.66;48.77;94985.00;2204750;55;25799;-50
2021/06/19 11:01:10;;;;;;;10.57;5.50;;;33.40;99.90;;;34.20;59.27;94979.00;2214083;56;27103;-51
2021/06/19 11:03:58;;;;;;;8.98;5.62;;;33.40;99.90;;;34.28;56.95;94971.00;2188650;57;25216;-51
2021/06/19 11:06:44;;;;;;;8.48;5.65;;;33.70;99.90;;;34.80;54.82;94966.00;2407850;55;25608;-50
2021/06/19 11:09:39;;;;;;;7.93;5.72;;;33.40;99.90;;;34.44;62.01;94971.00;2190171;57;27334;-50
2021/06/19 11:12:27;;;;;;;10.40;5.97;;;33.20;99.90;;;33.52;61.17;94962.00;2189875;57;26122;-50
2021/06/19 11:18:11;;;;;;;9.77;6.03;;;33.10;99.90;;;33.80;60.76;94952.00;2431499;54;33658;-51
2021/06/19 11:21:11;;;;;;;11.12;5.50;;;33.40;99.90;;;34.13;61.65;94955.00;2410238;55;25535;-52
2021/06/19 11:24:10;;;;;;;8.27;5.50;;;33.50;99.90;;;34.44;56.75;94951.00;2379156;55;27425;-52
2021/06/19 11:26:57;;;;;;;9.57;5.90;;;33.00;99.90;;;33.18;61.51;94952.00;2378274;55;25909;-53
2021/06/19 11:29:44;;;;;;;7.30;5.75;;;32.90;99.90;;;33.56;63.58;94946.00;2180007;56;27003;-52
2021/06/19 11:32:32;;;;;;;10.30;5.70;;;32.80;99.90;;;33.88;66.09;94936.00;2163760;56;25875;-51
2021/06/19 11:35:23;;;;;;;6.05;5.43;;;33.30;99.90;;;34.27;55.97;94936.00;2373528;57;27220;-53
2021/06/19 11:38:10;;;;;;;10.98;6.03;;;33.20;99.90;;;34.18;61.46;94924.00;2363890;56;27390;-52
2021/06/19 11:40:56;;;;;;;9.82;5.55;;;33.70;99.90;;;34.50;55.13;94915.00;2183372;56;25539;-52
2021/06/19 11:43:44;;;;;;;6.43;5.50;;;33.70;99.90;;;34.41;61.60;94914.00;2181653;56;25817;-52
2021/06/19 11:46:30;;;;;;;8.95;5.25;;;33.60;99.90;;;33.83;62.51;94912.00;2401619;55;25742;-53
2021/06/19 11:49:17;;;;;;;8.40;5.05;;;33.30;99.90;;;33.28;57.63;94910.00;2185286;56;26845;-53
2021/06/19 11:52:06;;;;;;;7.25;5.68;;;33.10;99.90;;;33.26;62.75;94909.00;2404968;56;25565;-53
2021/06/19 11:57:58;;;;;;;6.30;5.35;;;33.20;99.90;;;33.91;65.43;94903.00;2433142;54;34279;-52
2021/06/19 12:00:54;;;;;;;8.35;5.25;;;33.30;99.90;;;33.36;59.22;94912.00;2175809;55;25637;-51
2021/06/19 12:03:41;;;;;;;8.02;5.45;;;33.80;99.90;;;34.50;58.97;94904.00;2402004;55;25652;-52
2021/06/19 12:06:35;;;;;;;9.43;5.10;;;34.00;99.90;;;34.63;60.30;94906.00;2184826;55;25776;-53
2021/06/19 12:09:25;;;;;;;7.43;5.18;;;34.00;99.90;;;34.30;57.07;94898.00;2403391;55;25858;-53
2021/06/19 12:12:15;;;;;;;8.10;5.40;;;33.90;99.90;;;33.96;61.17;94901.00;2185435;56;25204;-53
2021/06/19 12:15:01;;;;;;;8.75;5.82;;;33.50;99.90;;;33.69;59.64;94893.00;2402533;55;26741;-53
2021/06/19 12:17:47;;;;;;;9.00;5.62;;;33.40;99.90;;;33.66;59.99;94883.00;2184041;55;26889;-50
2021/06/19 12:20:34;;;;;;;7.30;4.95;;;33.60;99.90;;;34.24;55.91;94888.00;2401963;55;26233;-51
2021/06/19 12:23:20;;;;;;;14.87;5.70;;;33.40;99.90;;;33.67;66.96;94882.00;2185114;55;25113;-50
2021/06/19 12:26:09;;;;;;;8.10;5.40;;;33.40;99.90;;;33.64;65.63;94872.00;2402093;55;26823;-50
2021/06/19 12:28:56;;;;;;;11.00;5.62;;;33.50;99.90;;;33.92;60.93;94866.00;2188129;56;27294;-50
2021/06/19 12:31:42;;;;;;;7.95;5.60;;;33.50;99.90;;;33.93;63.91;94865.00;2186932;55;27206;-50
2021/06/19 12:34:29;;;;;;;8.88;5.78;;;33.80;99.90;;;34.33;64.23;94858.00;2407318;55;26124;-50
2021/06/19 12:37:20;;;;;;;7.10;5.47;;;33.80;99.90;;;34.07;62.48;94853.00;2190405;56;26643;-50
2021/06/19 12:40:11;;;;;;;9.20;6.15;;;33.80;99.90;;;33.71;61.09;94859.00;2407083;55;25623;-50
2021/06/19 12:43:07;;;;;;;11.43;6.03;;;33.40;99.90;;;33.32;64.04;94859.00;2407535;55;27260;-51
2021/06/19 12:45:55;;;;;;;11.10;5.70;;;33.00;99.90;;;33.14;67.41;94846.00;2188347;56;26716;-50
2021/06/19 12:48:41;;;;;;;8.80;6.00;;;33.10;99.90;;;33.54;78.77;94842.00;2405985;55;25724;-50
2021/06/19 12:51:33;;;;;;;12.02;6.00;;;33.30;99.90;;;33.82;63.10;94829.00;2189339;55;26824;-49
2021/06/19 12:54:24;;;;;;;10.75;5.75;;;33.50;99.90;;;33.79;65.14;94823.00;2405522;55;26579;-50
2021/06/19 12:57:17;;;;;;;6.82;5.75;;;33.40;99.90;;;33.72;68.09;94828.00;2187538;56;25776;-50
2021/06/19 13:00:07;;;;;;;10.88;6.90;;;33.50;99.90;;;33.88;67.27;94817.00;2410600;55;26766;-50
2021/06/19 13:02:54;;;;;;;9.88;6.12;;;33.20;99.90;;;33.58;70.53;94823.00;2408376;55;25123;-51
2021/06/19 13:09:00;;;;;;;9.27;5.97;;;32.80;99.90;;;32.79;70.91;94818.00;2473675;53;32515;-52
2021/06/19 13:11:47;;;;;;;9.90;6.25;;;32.50;99.90;;;32.56;72.10;94820.00;2454626;55;25076;-52
2021/06/19 13:14:33;;;;;;;7.05;5.82;;;32.40;99.90;;;32.81;72.71;94807.00;2233072;55;26765;-52